Knoxville, TN

7:53 PM EDT en Octubre 22, 2014 (GMT -0400)
Fountain City | Change Station
CLOSE
Current Station
Estación meteorológica personal
Location: Knoxville, TN
Altura: 1288 ft
Estaciones meteorológicas cercanas

Alt 1288 ft 36.06 °N, 83.91 °W | Updated 3 minutes ago

Parcialmente nublado
Parcialmente nublado
47.9 ° F
Sensación térmica 48 ° F
N
1.0
Viento Variable Viento desde Norte
Gusts 6.0 mph

Hoy
Alta -- | Baja -- ° F
--% Posibilidad de precipitaciones
Ayer
Alta -- | Baja -- ° F
Precip. -- pul
7:48 AM 6:50 PM
Creciente menguante, 1% visible
Presión 30.17 pul
Visibilidad 10.0 Millas
Nubes Baja 4500 ft
Vientos helados 48 ° F
Punto de rocío 39 ° F
Humedad 71%
Precipitaciones 0.00 pul
Espesor de la nieve No disponible.
UV 0 de una escala de 12
Polen 1.10 de una escala de 12
Ozono Buena
Flu Activity Sporadic
METAR KTYS 222253Z 02015KT 10SM FEW045 12/04 A3017 RMK AO2 SLP217 T01220044

More Conditions Fewer Conditions

Presión 30.17 pul
Visibilidad 10.0 Millas
Nubes Baja 4500 ft
Vientos helados 48 ° F
Punto de rocío 39 ° F
Humedad 71%
Precipitaciones 0.00 pul
Espesor de la nieve No disponible.
UV 0 de una escala de 12
Polen 1.10 de una escala de 12
Ozono Buena
Flu Activity Sporadic
METAR KTYS 222253Z 02015KT 10SM FEW045 12/04 A3017 RMK AO2 SLP217 T01220044

More Conditions Fewer Conditions

10-Day Weather Forecast

Almanac

Astronomía

Oct. 22, 2014 Salida Puesta
Hora real 7:48 AM EDT 6:50 PM EDT
Crepúsculo civil 7:22 AM EDT 7:16 PM EDT
Crepúsculo náutico 6:52 AM EDT 7:46 PM EDT
Crepúsculo astronómico 6:22 AM EDT 8:16 PM EDT
Luna 6:31 AM EDT 6:15 PM EDT
Horas de luz 11h 54m
Horas de luz
11h 02m
Tomorrow will be 2m 8s shorter.
Creciente menguante, 1% of the Moon is Illuminated
Hoy
Creciente menguante
Oct 23
Nueva
Oct 30
Cuarto creciente
Nov 6
Luna llena
Nov 14
Cuarto menguante

Extremos de hoy

Máximos del estado Bajos del estado

Community

WunderPhotos

Upload Photos

1,764,080 ¡fotos cargadas!

WunderBlogs® & News

Nearby

Calidad del aire

  Calidad del aire Índice AQ Contaminante
Ayer Buena
PM2.5
Ayer Buena
OZONE
Real Buena
OZONE
Miércoles Buena
PM2.5
Miércoles Buena
OZONE
Jueves Buena
PM2.5
Jueves Buena
OZONE
Viernes Buena
PM2.5
Viernes Buena
OZONE

Grosos de nieve

Estación Profundido Altura
No tenemos constancia de nieve nueva.

Actividad de terremotos

Ciudad Distance Mag. Tiempo y dato
No hay informes recientes de la actividad sísmica.
Magnitud mínima muestra es 2,5.

Temperaturas de aguas costeras

Lugar Temperatura
Sin partes meteorológicos de las estaciones

Estaciones meteorológicas cercanas